createdAt,value
2022-12-29T00:00:47.011Z,988.86
2022-12-29T00:01:46.905Z,988.84
2022-12-29T00:02:46.976Z,988.85
2022-12-29T00:03:46.971Z,988.80
2022-12-29T00:04:46.905Z,988.96
2022-12-29T00:05:46.857Z,988.81
2022-12-29T00:06:46.861Z,988.90
2022-12-29T00:07:46.843Z,988.79
2022-12-29T00:08:46.842Z,988.77
2022-12-29T00:09:46.816Z,988.79
2022-12-29T00:10:46.888Z,988.78
2022-12-29T00:11:46.811Z,988.82
2022-12-29T00:12:46.792Z,988.75
2022-12-29T00:13:46.824Z,988.76
2022-12-29T00:14:46.799Z,988.78
2022-12-29T00:15:46.796Z,988.80
2022-12-29T00:16:46.769Z,988.74
2022-12-29T00:17:46.741Z,988.79
2022-12-29T00:18:46.760Z,988.80
2022-12-29T00:19:46.707Z,988.77
2022-12-29T00:20:46.738Z,988.77
2022-12-29T00:21:46.708Z,988.76
2022-12-29T00:22:46.697Z,988.68
2022-12-29T00:23:46.695Z,988.64
2022-12-29T00:24:46.673Z,988.59
2022-12-29T00:25:46.652Z,988.61
2022-12-29T00:26:46.739Z,988.54
2022-12-29T00:27:46.638Z,988.60
2022-12-29T00:28:46.633Z,988.57
2022-12-29T00:29:46.624Z,988.53
2022-12-29T00:30:46.601Z,988.58
2022-12-29T00:31:46.664Z,988.62
2022-12-29T00:32:46.581Z,988.59
2022-12-29T00:33:46.601Z,988.44
2022-12-29T00:34:46.549Z,988.60
2022-12-29T00:35:46.556Z,988.51
2022-12-29T00:36:46.549Z,988.49
2022-12-29T00:37:46.528Z,988.49
2022-12-29T00:38:46.526Z,988.50
2022-12-29T00:39:46.551Z,988.46
2022-12-29T00:40:46.493Z,988.45
2022-12-29T00:41:46.499Z,988.43
2022-12-29T00:42:46.470Z,988.47
2022-12-29T00:43:46.461Z,988.47
2022-12-29T00:44:46.462Z,988.48
2022-12-29T00:45:46.481Z,988.51
2022-12-29T00:46:46.513Z,988.42
2022-12-29T00:47:46.447Z,988.46
2022-12-29T00:48:46.403Z,988.46
2022-12-29T00:49:46.447Z,988.43
2022-12-29T00:50:46.384Z,988.44
2022-12-29T00:51:46.421Z,988.49
2022-12-29T00:52:46.376Z,988.49
2022-12-29T00:53:46.361Z,988.46
2022-12-29T00:54:46.332Z,988.50
2022-12-29T00:55:46.347Z,988.52
2022-12-29T00:56:46.317Z,988.48
2022-12-29T00:57:46.340Z,988.58
2022-12-29T00:58:46.305Z,988.48
2022-12-29T00:59:46.308Z,988.49
2022-12-29T01:00:46.341Z,988.47
2022-12-29T01:01:46.451Z,988.42
2022-12-29T01:02:46.445Z,988.43
2022-12-29T01:03:46.274Z,988.48
2022-12-29T01:04:46.233Z,988.44
2022-12-29T01:05:46.253Z,988.45
2022-12-29T01:06:46.216Z,988.41
2022-12-29T01:07:46.280Z,988.42
2022-12-29T01:08:46.200Z,988.44
2022-12-29T01:09:46.188Z,988.37
2022-12-29T01:10:46.201Z,988.35
2022-12-29T01:11:46.186Z,988.33
2022-12-29T01:12:46.414Z,988.34
2022-12-29T01:13:46.153Z,988.36
2022-12-29T01:14:46.130Z,988.38
2022-12-29T01:15:46.131Z,988.44
2022-12-29T01:16:46.300Z,988.44
2022-12-29T01:17:46.119Z,988.38
2022-12-29T01:18:46.080Z,988.35
2022-12-29T01:19:46.137Z,988.39
2022-12-29T01:20:46.065Z,988.24
2022-12-29T01:21:46.067Z,988.29
2022-12-29T01:22:46.048Z,988.19
2022-12-29T01:23:46.076Z,988.12
2022-12-29T01:24:46.028Z,988.07
2022-12-29T01:25:46.014Z,988.07
2022-12-29T01:26:46.013Z,988.13
2022-12-29T01:27:46.012Z,988.14
2022-12-29T01:28:46.599Z,988.13
2022-12-29T01:29:45.992Z,988.09
2022-12-29T01:30:45.969Z,988.04
2022-12-29T01:31:46.033Z,988.05
2022-12-29T01:32:45.944Z,988.10
2022-12-29T01:33:45.945Z,988.04
2022-12-29T01:34:45.947Z,988.05
2022-12-29T01:35:45.917Z,988.05
2022-12-29T01:36:45.906Z,987.95
2022-12-29T01:37:45.900Z,988.00
2022-12-29T01:38:45.881Z,987.94
2022-12-29T01:39:45.937Z,987.95
2022-12-29T01:40:45.848Z,987.92
2022-12-29T01:41:45.858Z,987.90
2022-12-29T01:42:45.836Z,987.94
2022-12-29T01:43:45.837Z,987.92
2022-12-29T01:44:45.819Z,987.93
2022-12-29T01:45:45.859Z,987.87
2022-12-29T01:46:45.791Z,987.94
2022-12-29T01:47:45.793Z,987.88
2022-12-29T01:48:45.768Z,987.88
2022-12-29T01:49:45.782Z,987.86
2022-12-29T01:50:45.757Z,987.88
2022-12-29T01:51:45.817Z,987.82
2022-12-29T01:52:45.762Z,988.02
2022-12-29T01:53:46.497Z,988.09
2022-12-29T01:54:45.734Z,987.79
2022-12-29T01:55:45.750Z,987.94
2022-12-29T01:56:45.716Z,987.87
2022-12-29T01:57:45.686Z,987.90
2022-12-29T01:58:45.679Z,987.91
2022-12-29T01:59:45.671Z,987.89
2022-12-29T02:00:45.721Z,987.83
2022-12-29T02:01:45.863Z,987.91
2022-12-29T02:02:45.662Z,987.97
2022-12-29T02:03:45.655Z,987.89
2022-12-29T02:04:45.602Z,987.84
2022-12-29T02:05:45.644Z,987.88
2022-12-29T02:06:45.594Z,987.94
2022-12-29T02:07:45.609Z,987.87
2022-12-29T02:08:45.592Z,987.96
2022-12-29T02:09:45.549Z,987.93
2022-12-29T02:10:45.536Z,987.96
2022-12-29T02:11:45.573Z,987.90
2022-12-29T02:12:45.522Z,987.89
2022-12-29T02:13:45.522Z,988.06
2022-12-29T02:14:45.514Z,987.99
2022-12-29T02:15:45.519Z,987.81
2022-12-29T02:16:45.532Z,987.75
2022-12-29T02:17:45.492Z,987.66
2022-12-29T02:18:45.479Z,987.73
2022-12-29T02:19:45.451Z,987.74
2022-12-29T02:20:45.431Z,987.76
2022-12-29T02:21:45.457Z,987.77
2022-12-29T02:22:45.412Z,987.71
2022-12-29T02:23:45.432Z,987.75
2022-12-29T02:24:45.433Z,987.65
2022-12-29T02:25:45.399Z,987.73
2022-12-29T02:26:45.399Z,987.67
2022-12-29T02:27:45.384Z,987.64
2022-12-29T02:28:46.367Z,987.65
2022-12-29T02:29:45.351Z,987.64
2022-12-29T02:30:45.329Z,987.55
2022-12-29T02:31:45.465Z,987.56
2022-12-29T02:32:45.318Z,987.59
2022-12-29T02:33:45.312Z,987.59
2022-12-29T02:34:45.285Z,987.56
2022-12-29T02:35:45.281Z,987.61
2022-12-29T02:36:45.283Z,987.65
2022-12-29T02:37:45.291Z,987.65
2022-12-29T02:38:45.241Z,987.66
2022-12-29T02:39:45.256Z,987.69
2022-12-29T02:40:45.233Z,987.61
2022-12-29T02:41:45.257Z,987.64
2022-12-29T02:42:45.216Z,987.63
2022-12-29T02:43:45.203Z,987.56
2022-12-29T02:44:45.193Z,987.56
2022-12-29T02:45:45.209Z,987.62
2022-12-29T02:46:45.165Z,987.66
2022-12-29T02:47:45.185Z,987.63
2022-12-29T02:48:45.145Z,987.65
2022-12-29T02:49:45.148Z,987.64
2022-12-29T02:50:45.131Z,987.64
2022-12-29T02:51:45.131Z,987.59
2022-12-29T02:52:45.112Z,987.66
2022-12-29T02:53:45.136Z,987.47
2022-12-29T02:54:45.100Z,987.46
2022-12-29T02:55:45.089Z,987.46
2022-12-29T02:56:45.061Z,987.43
2022-12-29T02:57:45.076Z,987.35
2022-12-29T02:58:45.043Z,987.38
2022-12-29T02:59:45.039Z,987.40
2022-12-29T03:00:45.067Z,987.45
2022-12-29T03:01:45.145Z,987.46
2022-12-29T03:02:45.190Z,987.39
2022-12-29T03:03:44.993Z,987.49
2022-12-29T03:04:44.978Z,987.45
2022-12-29T03:05:44.973Z,987.47
2022-12-29T03:06:44.952Z,987.44
2022-12-29T03:07:44.961Z,987.50
2022-12-29T03:08:44.933Z,987.46
2022-12-29T03:09:44.938Z,987.45
2022-12-29T03:10:44.904Z,987.40
2022-12-29T03:11:44.919Z,987.40
2022-12-29T03:12:44.911Z,987.34
2022-12-29T03:13:44.883Z,987.37
2022-12-29T03:14:44.870Z,987.32
2022-12-29T03:15:44.866Z,987.23
2022-12-29T03:16:44.871Z,987.18
2022-12-29T03:17:44.838Z,987.24
2022-12-29T03:18:44.865Z,987.26
2022-12-29T03:19:44.840Z,987.26
2022-12-29T03:20:44.806Z,987.25
2022-12-29T03:21:44.837Z,987.15
2022-12-29T03:22:44.798Z,987.25
2022-12-29T03:23:44.813Z,987.24
2022-12-29T03:24:44.796Z,987.30
2022-12-29T03:25:44.760Z,987.31
2022-12-29T03:26:44.732Z,987.27
2022-12-29T03:27:44.757Z,987.34
2022-12-29T03:28:44.741Z,987.30
2022-12-29T03:29:44.737Z,987.37
2022-12-29T03:30:44.744Z,987.20
2022-12-29T03:31:44.707Z,987.31
2022-12-29T03:32:44.689Z,987.21
2022-12-29T03:33:44.674Z,987.22
2022-12-29T03:34:44.755Z,987.23
2022-12-29T03:35:44.659Z,987.23
2022-12-29T03:36:44.627Z,987.13
2022-12-29T03:37:44.627Z,987.05
2022-12-29T03:38:44.651Z,987.07
2022-12-29T03:39:44.660Z,987.07
2022-12-29T03:40:44.629Z,987.15
2022-12-29T03:41:44.613Z,987.06
2022-12-29T03:42:44.573Z,987.09
2022-12-29T03:43:44.590Z,987.06
2022-12-29T03:44:44.566Z,986.98
2022-12-29T03:45:44.582Z,987.11
2022-12-29T03:46:44.590Z,987.01
2022-12-29T03:47:44.529Z,986.98
2022-12-29T03:48:44.514Z,986.98
2022-12-29T03:49:44.525Z,987.05
2022-12-29T03:50:44.483Z,987.06
2022-12-29T03:51:44.518Z,987.10
2022-12-29T03:52:44.486Z,987.17
2022-12-29T03:53:44.455Z,987.01
2022-12-29T03:54:44.462Z,986.96
2022-12-29T03:55:44.449Z,986.96
2022-12-29T03:56:44.414Z,986.86
2022-12-29T03:57:44.421Z,986.93
2022-12-29T03:58:44.412Z,986.92
2022-12-29T03:59:44.422Z,987.07
2022-12-29T04:00:44.404Z,987.28
2022-12-29T04:01:44.473Z,987.18
2022-12-29T04:02:44.439Z,987.03
2022-12-29T04:03:44.385Z,987.17
2022-12-29T04:04:44.366Z,987.05
2022-12-29T04:05:44.334Z,987.02
2022-12-29T04:06:44.352Z,987.12
2022-12-29T04:07:44.325Z,987.15
2022-12-29T04:08:44.314Z,987.15
2022-12-29T04:09:44.357Z,987.17
2022-12-29T04:10:44.277Z,987.14
2022-12-29T04:11:44.286Z,987.16
2022-12-29T04:12:44.265Z,987.23
2022-12-29T04:13:44.258Z,987.14
2022-12-29T04:14:44.236Z,987.24
2022-12-29T04:15:44.339Z,987.09
2022-12-29T04:16:44.222Z,987.13
2022-12-29T04:17:44.238Z,987.15
2022-12-29T04:18:44.189Z,987.09
2022-12-29T04:19:44.196Z,987.16
2022-12-29T04:20:44.191Z,987.14
2022-12-29T04:21:44.174Z,987.08
2022-12-29T04:22:44.147Z,987.24
2022-12-29T04:23:53.337Z,987.17
2022-12-29T04:24:44.119Z,987.16
2022-12-29T04:25:44.144Z,987.14
2022-12-29T04:26:44.156Z,987.23
2022-12-29T04:27:44.124Z,987.10
2022-12-29T04:28:44.133Z,987.18
2022-12-29T04:29:44.111Z,987.22
2022-12-29T04:30:44.104Z,987.24
2022-12-29T04:31:44.182Z,987.17
2022-12-29T04:32:44.038Z,987.28
2022-12-29T04:33:44.120Z,987.23
2022-12-29T04:34:44.113Z,987.26
2022-12-29T04:35:44.076Z,987.24
2022-12-29T04:36:44.024Z,987.16
2022-12-29T04:37:44.020Z,987.17
2022-12-29T04:38:43.988Z,987.21
2022-12-29T04:39:44.067Z,987.24
2022-12-29T04:40:44.036Z,987.29
2022-12-29T04:41:43.958Z,987.22
2022-12-29T04:42:43.950Z,987.16
2022-12-29T04:43:43.941Z,987.38
2022-12-29T04:44:45.381Z,987.09
2022-12-29T04:45:43.912Z,987.12
2022-12-29T04:46:43.961Z,987.16
2022-12-29T04:47:43.916Z,987.02
2022-12-29T04:48:43.896Z,987.15
2022-12-29T04:49:43.878Z,987.09
2022-12-29T04:50:43.904Z,987.10
2022-12-29T04:51:43.849Z,987.20
2022-12-29T04:52:43.866Z,987.16
2022-12-29T04:53:43.823Z,987.21
2022-12-29T04:54:43.862Z,987.16
2022-12-29T04:55:43.821Z,987.20
2022-12-29T04:56:43.840Z,987.15
2022-12-29T04:57:43.789Z,987.23
2022-12-29T04:58:43.793Z,987.23
2022-12-29T04:59:43.846Z,987.39
2022-12-29T05:00:43.768Z,987.50
2022-12-29T05:01:43.897Z,987.29
2022-12-29T05:02:43.931Z,987.17
2022-12-29T05:03:43.800Z,987.23
2022-12-29T05:04:43.722Z,987.22
2022-12-29T05:05:43.697Z,987.19
2022-12-29T05:06:43.728Z,987.26
2022-12-29T05:07:43.710Z,987.26
2022-12-29T05:08:43.699Z,987.26
2022-12-29T05:09:43.653Z,987.34
2022-12-29T05:10:43.673Z,987.20
2022-12-29T05:11:43.642Z,987.20
2022-12-29T05:12:43.658Z,987.19
2022-12-29T05:13:43.652Z,987.21
2022-12-29T05:14:43.616Z,987.11
2022-12-29T05:15:43.664Z,987.10
2022-12-29T05:16:43.639Z,987.24
2022-12-29T05:17:43.579Z,987.16
2022-12-29T05:18:44.087Z,987.17
2022-12-29T05:19:43.558Z,987.20
2022-12-29T05:20:43.563Z,987.23
2022-12-29T05:21:43.549Z,987.29
2022-12-29T05:22:43.528Z,987.36
2022-12-29T05:23:43.521Z,987.42
2022-12-29T05:24:43.534Z,987.50
2022-12-29T05:25:43.492Z,987.50
2022-12-29T05:26:43.495Z,987.39
2022-12-29T05:27:43.468Z,987.42
2022-12-29T05:28:44.346Z,987.35
2022-12-29T05:29:43.481Z,987.27
2022-12-29T05:30:43.444Z,987.28
2022-12-29T05:31:43.507Z,987.31
2022-12-29T05:32:43.452Z,987.30
2022-12-29T05:33:43.435Z,987.30
2022-12-29T05:34:43.430Z,987.32
2022-12-29T05:35:43.428Z,987.34
2022-12-29T05:36:43.408Z,987.29
2022-12-29T05:37:43.387Z,987.37
2022-12-29T05:38:43.401Z,987.40
2022-12-29T05:39:43.371Z,987.46
2022-12-29T05:40:43.383Z,987.27
2022-12-29T05:41:43.325Z,987.37
2022-12-29T05:42:43.326Z,987.46
2022-12-29T05:43:43.315Z,987.42
2022-12-29T05:44:43.343Z,987.56
2022-12-29T05:45:43.276Z,987.46
2022-12-29T05:46:43.389Z,987.46
2022-12-29T05:47:43.318Z,987.47
2022-12-29T05:48:43.301Z,987.47
2022-12-29T05:49:43.252Z,987.40
2022-12-29T05:50:43.292Z,987.39
2022-12-29T05:51:43.254Z,987.39
2022-12-29T05:52:43.229Z,987.51
2022-12-29T05:53:43.241Z,987.50
2022-12-29T05:54:43.235Z,987.47
2022-12-29T05:55:46.991Z,987.60
2022-12-29T05:56:43.252Z,987.55
2022-12-29T05:57:43.219Z,987.62
2022-12-29T05:58:43.172Z,987.51
2022-12-29T05:59:43.144Z,987.60
2022-12-29T06:00:43.934Z,987.66
2022-12-29T06:01:43.305Z,987.55
2022-12-29T06:02:43.258Z,987.61
2022-12-29T06:03:48.154Z,987.59
2022-12-29T06:04:43.108Z,987.75
2022-12-29T06:05:43.100Z,987.68
2022-12-29T06:06:43.096Z,987.69
2022-12-29T06:07:43.138Z,987.67
2022-12-29T06:08:43.064Z,987.66
2022-12-29T06:09:43.048Z,987.84
2022-12-29T06:10:43.067Z,987.70
2022-12-29T06:11:43.062Z,987.77
2022-12-29T06:12:43.008Z,987.70
2022-12-29T06:13:43.016Z,987.73
2022-12-29T06:14:42.989Z,987.77
2022-12-29T06:15:42.988Z,987.75
2022-12-29T06:16:43.160Z,987.71
2022-12-29T06:17:42.982Z,987.80
2022-12-29T06:18:42.948Z,987.73
2022-12-29T06:19:42.936Z,987.77
2022-12-29T06:20:42.957Z,987.82
2022-12-29T06:21:42.946Z,987.83
2022-12-29T06:22:43.374Z,987.96
2022-12-29T06:23:42.894Z,987.88
2022-12-29T06:24:42.919Z,987.92
2022-12-29T06:25:42.858Z,987.93
2022-12-29T06:26:42.875Z,987.91
2022-12-29T06:27:42.927Z,987.98
2022-12-29T06:28:42.873Z,988.15
2022-12-29T06:29:42.851Z,988.01
2022-12-29T06:30:42.905Z,987.91
2022-12-29T06:31:42.883Z,988.15
2022-12-29T06:32:42.875Z,988.04
2022-12-29T06:33:43.710Z,988.20
2022-12-29T06:34:42.779Z,988.09
2022-12-29T06:35:42.766Z,988.10
2022-12-29T06:36:42.764Z,988.14
2022-12-29T06:37:42.756Z,988.19
2022-12-29T06:38:42.755Z,988.08
2022-12-29T06:39:42.759Z,988.16
2022-12-29T06:40:42.719Z,988.13
2022-12-29T06:41:42.721Z,988.14
2022-12-29T06:42:42.733Z,988.13
2022-12-29T06:43:42.697Z,987.96
2022-12-29T06:44:42.685Z,988.00
2022-12-29T06:45:42.771Z,988.07
2022-12-29T06:46:42.654Z,988.01
2022-12-29T06:47:42.653Z,988.12
2022-12-29T06:48:42.665Z,988.15
2022-12-29T06:49:42.616Z,988.08
2022-12-29T06:50:42.665Z,987.99
2022-12-29T06:51:42.617Z,988.03
2022-12-29T06:52:42.609Z,988.07
2022-12-29T06:53:42.615Z,988.09
2022-12-29T06:54:42.605Z,988.16
2022-12-29T06:55:42.565Z,988.23
2022-12-29T06:56:42.619Z,988.19
2022-12-29T06:57:42.615Z,988.20
2022-12-29T06:58:42.538Z,988.14
2022-12-29T06:59:42.625Z,988.22
2022-12-29T07:00:42.592Z,988.14
2022-12-29T07:01:42.550Z,988.09
2022-12-29T07:02:42.554Z,988.03
2022-12-29T07:03:42.483Z,988.09
2022-12-29T07:04:42.466Z,988.17
2022-12-29T07:05:42.838Z,988.17
2022-12-29T07:06:42.429Z,988.19
2022-12-29T07:07:42.454Z,988.14
2022-12-29T07:08:42.408Z,988.17
2022-12-29T07:09:42.361Z,988.23
2022-12-29T07:10:42.430Z,988.22
2022-12-29T07:11:42.589Z,988.12
2022-12-29T07:12:42.435Z,988.22
2022-12-29T07:13:42.974Z,988.27
2022-12-29T07:14:43.547Z,988.32
2022-12-29T07:15:42.331Z,988.26
2022-12-29T07:16:42.443Z,988.25
2022-12-29T07:17:42.293Z,988.25
2022-12-29T07:18:42.675Z,988.31
2022-12-29T07:19:42.621Z,988.37
2022-12-29T07:20:42.286Z,988.30
2022-12-29T07:21:45.926Z,988.40
2022-12-29T07:22:42.324Z,988.36
2022-12-29T07:23:42.420Z,988.42
2022-12-29T07:24:42.529Z,988.50
2022-12-29T07:25:42.213Z,988.39
2022-12-29T07:26:42.201Z,988.38
2022-12-29T07:27:42.226Z,988.33
2022-12-29T07:28:42.237Z,988.37
2022-12-29T07:29:42.671Z,988.41
2022-12-29T07:30:42.200Z,988.45
2022-12-29T07:31:42.224Z,988.42
2022-12-29T07:32:42.237Z,988.45
2022-12-29T07:33:42.116Z,988.41
2022-12-29T07:34:42.125Z,988.39
2022-12-29T07:35:42.149Z,988.34
2022-12-29T07:36:42.088Z,988.41
2022-12-29T07:37:42.084Z,988.56
2022-12-29T07:38:42.067Z,988.44
2022-12-29T07:39:42.057Z,988.53
2022-12-29T07:40:42.069Z,988.49
2022-12-29T07:41:42.075Z,988.58
2022-12-29T07:42:42.081Z,988.58
2022-12-29T07:43:42.020Z,988.55
2022-12-29T07:44:42.002Z,988.61
2022-12-29T07:45:42.072Z,988.62
2022-12-29T07:46:54.421Z,988.61
2022-12-29T07:47:41.979Z,988.61
2022-12-29T07:48:41.980Z,988.62
2022-12-29T07:49:41.955Z,988.76
2022-12-29T07:50:41.934Z,988.76
2022-12-29T07:51:41.946Z,988.61
2022-12-29T07:52:41.954Z,988.72
2022-12-29T07:53:41.918Z,988.76
2022-12-29T07:54:41.922Z,988.72
2022-12-29T07:55:41.910Z,988.76
2022-12-29T07:56:41.901Z,988.69
2022-12-29T07:57:41.865Z,988.69
2022-12-29T07:58:41.888Z,988.71
2022-12-29T07:59:41.857Z,988.83
2022-12-29T08:00:41.868Z,988.70
2022-12-29T08:01:41.938Z,988.73
2022-12-29T08:02:41.905Z,988.70
2022-12-29T08:03:41.910Z,988.72
2022-12-29T08:04:41.830Z,988.71
2022-12-29T08:05:41.850Z,988.69
2022-12-29T08:06:41.783Z,988.70
2022-12-29T08:07:41.758Z,988.69
2022-12-29T08:08:41.786Z,988.68
2022-12-29T08:09:41.738Z,988.68
2022-12-29T08:10:41.794Z,988.66
2022-12-29T08:11:41.742Z,988.67
2022-12-29T08:12:41.714Z,988.63
2022-12-29T08:13:41.717Z,988.68
2022-12-29T08:14:41.730Z,988.66
2022-12-29T08:15:41.718Z,988.71
2022-12-29T08:16:41.749Z,988.68
2022-12-29T08:17:41.659Z,988.73
2022-12-29T08:18:41.662Z,988.65
2022-12-29T08:19:41.647Z,988.76
2022-12-29T08:20:41.640Z,988.71
2022-12-29T08:21:41.664Z,988.82
2022-12-29T08:22:41.629Z,988.79
2022-12-29T08:23:41.599Z,988.83
2022-12-29T08:24:41.600Z,988.80
2022-12-29T08:25:42.135Z,988.76
2022-12-29T08:26:41.608Z,988.84
2022-12-29T08:27:41.646Z,988.87
2022-12-29T08:28:41.602Z,988.85
2022-12-29T08:29:41.551Z,988.87
2022-12-29T08:30:41.591Z,988.84
2022-12-29T08:31:41.565Z,988.88
2022-12-29T08:32:41.543Z,988.92
2022-12-29T08:33:41.479Z,988.86
2022-12-29T08:34:41.593Z,988.90
2022-12-29T08:35:41.567Z,988.93
2022-12-29T08:36:41.570Z,988.84
2022-12-29T08:37:41.461Z,988.94
2022-12-29T08:38:41.466Z,988.96
2022-12-29T08:39:41.429Z,988.86
2022-12-29T08:40:41.450Z,988.94
2022-12-29T08:41:41.405Z,989.07
2022-12-29T08:42:41.434Z,988.92
2022-12-29T08:43:41.389Z,989.01
2022-12-29T08:44:41.458Z,988.99
2022-12-29T08:45:41.676Z,988.95
2022-12-29T08:46:41.423Z,989.02
2022-12-29T08:47:41.361Z,989.04
2022-12-29T08:48:41.386Z,989.07
2022-12-29T08:49:41.363Z,989.06
2022-12-29T08:50:41.380Z,988.99
2022-12-29T08:51:41.653Z,989.23
2022-12-29T08:52:41.299Z,989.06
2022-12-29T08:53:41.330Z,989.13
2022-12-29T08:54:41.390Z,989.01
2022-12-29T08:55:41.269Z,989.08
2022-12-29T08:56:41.373Z,989.13
2022-12-29T08:57:41.294Z,989.09
2022-12-29T08:58:42.664Z,989.30
2022-12-29T08:59:49.041Z,989.11
2022-12-29T09:00:41.963Z,989.06
2022-12-29T09:01:41.324Z,989.00
2022-12-29T09:02:41.361Z,989.02
2022-12-29T09:04:41.195Z,989.08
2022-12-29T09:05:41.156Z,988.94
2022-12-29T09:06:41.172Z,988.95
2022-12-29T09:07:41.140Z,989.04
2022-12-29T09:08:41.125Z,989.03
2022-12-29T09:09:41.107Z,988.90
2022-12-29T09:10:41.086Z,988.93
2022-12-29T09:11:41.121Z,989.00
2022-12-29T09:12:41.068Z,988.99
2022-12-29T09:13:41.084Z,988.95
2022-12-29T09:14:41.056Z,988.90
2022-12-29T09:15:41.151Z,988.92
2022-12-29T09:16:41.086Z,988.92
2022-12-29T09:17:41.039Z,988.88
2022-12-29T09:18:41.013Z,988.96
2022-12-29T09:19:41.012Z,988.90
2022-12-29T09:20:40.996Z,988.91
2022-12-29T09:21:41.029Z,988.99
2022-12-29T09:22:41.005Z,989.05
2022-12-29T09:23:40.974Z,988.99
2022-12-29T09:24:40.971Z,989.05
2022-12-29T09:25:40.954Z,988.94
2022-12-29T09:26:46.813Z,989.03
2022-12-29T09:27:40.948Z,988.98
2022-12-29T09:28:40.931Z,989.01
2022-12-29T09:29:40.905Z,988.98
2022-12-29T09:30:40.902Z,988.92
2022-12-29T09:31:40.942Z,989.04
2022-12-29T09:32:45.138Z,989.31
2022-12-29T09:33:40.892Z,989.05
2022-12-29T09:34:40.848Z,989.17
2022-12-29T09:35:40.876Z,989.08
2022-12-29T09:36:40.855Z,989.05
2022-12-29T09:37:40.825Z,989.09
2022-12-29T09:38:40.818Z,989.08
2022-12-29T09:39:40.798Z,989.06
2022-12-29T09:40:40.788Z,989.16
2022-12-29T09:41:40.771Z,989.31
2022-12-29T09:42:40.760Z,988.99
2022-12-29T09:43:40.776Z,989.11
2022-12-29T09:44:40.774Z,989.18
2022-12-29T09:45:40.782Z,989.18
2022-12-29T09:46:40.808Z,989.11
2022-12-29T09:47:40.744Z,989.16
2022-12-29T09:48:40.751Z,989.21
2022-12-29T09:49:40.802Z,989.18
2022-12-29T09:50:40.690Z,989.31
2022-12-29T09:51:40.814Z,989.29
2022-12-29T09:52:40.706Z,989.36
2022-12-29T09:53:40.793Z,989.24
2022-12-29T09:54:40.671Z,989.24
2022-12-29T09:55:40.693Z,989.39
2022-12-29T09:56:40.666Z,989.35
2022-12-29T09:57:40.621Z,989.23
2022-12-29T09:58:40.602Z,989.24
2022-12-29T09:59:40.616Z,989.14
2022-12-29T10:00:40.626Z,989.44
2022-12-29T10:01:40.766Z,989.33
2022-12-29T10:02:40.684Z,989.30
2022-12-29T10:03:40.552Z,989.35
2022-12-29T10:04:40.584Z,989.28
2022-12-29T10:05:40.524Z,989.28
2022-12-29T10:06:56.484Z,989.24
2022-12-29T10:07:40.542Z,989.25
2022-12-29T10:08:40.530Z,989.39
2022-12-29T10:09:40.525Z,989.34
2022-12-29T10:10:40.492Z,989.22
2022-12-29T10:11:40.476Z,989.31
2022-12-29T10:12:40.451Z,989.25
2022-12-29T10:13:40.514Z,989.22
2022-12-29T10:14:40.448Z,989.15
2022-12-29T10:15:40.443Z,989.17
2022-12-29T10:16:40.512Z,989.28
2022-12-29T10:17:40.398Z,989.11
2022-12-29T10:18:40.382Z,989.17
2022-12-29T10:19:40.411Z,989.21
2022-12-29T10:20:40.361Z,989.16
2022-12-29T10:21:40.374Z,989.18
2022-12-29T10:22:40.343Z,989.25
2022-12-29T10:23:40.341Z,989.32
2022-12-29T10:24:48.949Z,989.34
2022-12-29T10:25:40.330Z,989.28
2022-12-29T10:26:40.309Z,989.30
2022-12-29T10:27:40.340Z,989.30
2022-12-29T10:28:40.278Z,989.29
2022-12-29T10:29:40.291Z,989.27
2022-12-29T10:30:40.288Z,989.33
2022-12-29T10:31:40.290Z,989.37
2022-12-29T10:32:40.233Z,989.25
2022-12-29T10:33:40.250Z,989.23
2022-12-29T10:34:40.354Z,989.27
2022-12-29T10:35:40.226Z,989.44
2022-12-29T10:36:40.296Z,989.15
2022-12-29T10:37:40.207Z,989.24
2022-12-29T10:38:40.271Z,989.32
2022-12-29T10:39:40.196Z,989.34
2022-12-29T10:40:40.206Z,989.26
2022-12-29T10:41:40.181Z,989.25
2022-12-29T10:42:40.159Z,989.30
2022-12-29T10:43:40.131Z,989.45
2022-12-29T10:44:40.131Z,989.26
2022-12-29T10:45:40.162Z,989.34
2022-12-29T10:46:40.130Z,989.32
2022-12-29T10:47:40.129Z,989.33
2022-12-29T10:48:40.095Z,989.23
2022-12-29T10:49:40.113Z,989.52
2022-12-29T10:50:40.147Z,989.32
2022-12-29T10:51:40.081Z,989.28
2022-12-29T10:52:40.048Z,989.27
2022-12-29T10:53:40.067Z,989.47
2022-12-29T10:54:40.015Z,989.42
2022-12-29T10:55:40.132Z,989.34
2022-12-29T10:56:39.995Z,989.37
2022-12-29T10:57:39.993Z,989.33
2022-12-29T10:58:39.993Z,989.29
2022-12-29T10:59:39.992Z,989.42
2022-12-29T11:00:40.005Z,989.40
2022-12-29T11:01:40.258Z,989.25
2022-12-29T11:02:40.101Z,989.25
2022-12-29T11:03:39.926Z,989.28
2022-12-29T11:04:39.916Z,989.26
2022-12-29T11:05:39.905Z,989.30
2022-12-29T11:06:39.917Z,989.42
2022-12-29T11:07:39.931Z,989.37
2022-12-29T11:08:39.869Z,989.32
2022-12-29T11:09:43.475Z,989.32
2022-12-29T11:10:39.899Z,989.29
2022-12-29T11:11:39.904Z,989.35
2022-12-29T11:12:39.828Z,989.30
2022-12-29T11:13:39.850Z,989.39
2022-12-29T11:14:39.823Z,989.35
2022-12-29T11:15:39.822Z,989.30
2022-12-29T11:16:39.847Z,989.40
2022-12-29T11:17:39.861Z,989.24
2022-12-29T11:18:39.756Z,989.43
2022-12-29T11:19:41.232Z,989.54
2022-12-29T11:20:39.744Z,989.54
2022-12-29T11:21:40.074Z,989.42
2022-12-29T11:22:39.716Z,989.49
2022-12-29T11:23:39.731Z,989.56
2022-12-29T11:24:39.719Z,989.55
2022-12-29T11:25:39.793Z,989.46
2022-12-29T11:26:39.699Z,989.69
2022-12-29T11:27:39.678Z,989.63
2022-12-29T11:28:39.764Z,989.70
2022-12-29T11:29:39.654Z,989.68
2022-12-29T11:30:39.648Z,989.70
2022-12-29T11:31:39.725Z,989.80
2022-12-29T11:32:39.615Z,989.64
2022-12-29T11:33:39.627Z,989.80
2022-12-29T11:34:39.606Z,989.82
2022-12-29T11:35:39.598Z,989.93
2022-12-29T11:36:39.572Z,989.73
2022-12-29T11:37:39.574Z,989.76
2022-12-29T11:38:39.551Z,989.85
2022-12-29T11:39:39.562Z,989.74
2022-12-29T11:40:39.529Z,989.79
2022-12-29T11:41:39.536Z,990.03
2022-12-29T11:42:39.507Z,989.88
2022-12-29T11:43:39.513Z,989.85
2022-12-29T11:44:39.489Z,989.83
2022-12-29T11:45:39.538Z,989.87
2022-12-29T11:46:39.557Z,989.92
2022-12-29T11:47:39.453Z,989.92
2022-12-29T11:48:39.463Z,989.98
2022-12-29T11:49:39.453Z,990.01
2022-12-29T11:50:39.470Z,989.99
2022-12-29T11:51:39.487Z,990.20
2022-12-29T11:52:39.410Z,990.00
2022-12-29T11:53:39.515Z,990.00
2022-12-29T11:54:39.383Z,990.12
2022-12-29T11:55:39.374Z,989.98
2022-12-29T11:56:41.319Z,990.02
2022-12-29T11:57:39.373Z,989.92
2022-12-29T11:58:39.473Z,990.17
2022-12-29T11:59:39.346Z,990.08
2022-12-29T12:00:39.544Z,990.15
2022-12-29T12:01:39.352Z,990.01
2022-12-29T12:02:42.846Z,990.30
2022-12-29T12:03:39.443Z,990.16
2022-12-29T12:04:39.341Z,990.12
2022-12-29T12:05:39.309Z,990.17
2022-12-29T12:06:39.313Z,990.12
2022-12-29T12:07:39.246Z,990.08
2022-12-29T12:08:39.233Z,990.16
2022-12-29T12:09:39.243Z,990.19
2022-12-29T12:10:39.220Z,990.18
2022-12-29T12:11:39.216Z,990.34
2022-12-29T12:12:39.212Z,990.34
2022-12-29T12:13:39.206Z,990.26
2022-12-29T12:14:39.203Z,990.37
2022-12-29T12:15:45.419Z,990.21
2022-12-29T12:16:39.267Z,990.26
2022-12-29T12:17:39.191Z,990.32
2022-12-29T12:18:39.140Z,990.25
2022-12-29T12:19:39.144Z,990.26
2022-12-29T12:20:39.248Z,990.18
2022-12-29T12:21:44.851Z,990.16
2022-12-29T12:22:39.104Z,990.32
2022-12-29T12:23:39.093Z,990.18
2022-12-29T12:24:39.242Z,990.27
2022-12-29T12:25:39.130Z,990.28
2022-12-29T12:26:39.057Z,990.33
2022-12-29T12:27:39.098Z,990.37
2022-12-29T12:28:39.082Z,990.38
2022-12-29T12:29:39.043Z,990.38